sensor_id;sensor_type;location;lat;lon;timestamp;temperature;humidity
11083;DHT22;5595;50.186;8.468;2023-09-19T00:00:00;17.10;99.90
11083;DHT22;5595;50.186;8.468;2023-09-19T00:02:27;17.10;99.90
11083;DHT22;5595;50.186;8.468;2023-09-19T00:04:54;17.00;99.90
11083;DHT22;5595;50.186;8.468;2023-09-19T00:07:21;17.00;99.90
11083;DHT22;5595;50.186;8.468;2023-09-19T00:09:48;17.00;99.90
11083;DHT22;5595;50.186;8.468;2023-09-19T00:12:15;17.00;99.90
11083;DHT22;5595;50.186;8.468;2023-09-19T00:14:43;16.90;99.90
11083;DHT22;5595;50.186;8.468;2023-09-19T00:17:11;16.90;99.90
11083;DHT22;5595;50.186;8.468;2023-09-19T00:19:38;17.00;99.90
11083;DHT22;5595;50.186;8.468;2023-09-19T00:22:08;16.90;99.90
11083;DHT22;5595;50.186;8.468;2023-09-19T00:24:35;16.90;99.90
11083;DHT22;5595;50.186;8.468;2023-09-19T00:27:02;16.90;99.90
11083;DHT22;5595;50.186;8.468;2023-09-19T00:29:29;16.90;99.90
11083;DHT22;5595;50.186;8.468;2023-09-19T00:31:57;17.00;99.90
11083;DHT22;5595;50.186;8.468;2023-09-19T00:34:26;17.00;99.90
11083;DHT22;5595;50.186;8.468;2023-09-19T00:36:53;16.90;99.90
11083;DHT22;5595;50.186;8.468;2023-09-19T00:39:20;16.90;99.90
11083;DHT22;5595;50.186;8.468;2023-09-19T00:41:47;16.90;99.90
11083;DHT22;5595;50.186;8.468;2023-09-19T00:44:14;16.90;99.90
11083;DHT22;5595;50.186;8.468;2023-09-19T00:46:43;16.90;99.90
11083;DHT22;5595;50.186;8.468;2023-09-19T00:49:13;16.90;99.90
11083;DHT22;5595;50.186;8.468;2023-09-19T00:51:42;16.90;99.90
11083;DHT22;5595;50.186;8.468;2023-09-19T00:54:13;16.90;99.90
11083;DHT22;5595;50.186;8.468;2023-09-19T00:56:44;16.80;99.90
11083;DHT22;5595;50.186;8.468;2023-09-19T00:59:11;16.80;99.90
11083;DHT22;5595;50.186;8.468;2023-09-19T01:01:39;16.80;99.90
11083;DHT22;5595;50.186;8.468;2023-09-19T01:04:06;16.80;99.90
11083;DHT22;5595;50.186;8.468;2023-09-19T01:06:33;16.90;99.90
11083;DHT22;5595;50.186;8.468;2023-09-19T01:09:03;16.90;99.90
11083;DHT22;5595;50.186;8.468;2023-09-19T01:11:35;16.90;99.90
11083;DHT22;5595;50.186;8.468;2023-09-19T01:14:15;16.90;99.90
11083;DHT22;5595;50.186;8.468;2023-09-19T01:16:50;16.90;99.90
11083;DHT22;5595;50.186;8.468;2023-09-19T01:19:56;16.90;99.90
11083;DHT22;5595;50.186;8.468;2023-09-19T01:22:37;16.90;99.90
11083;DHT22;5595;50.186;8.468;2023-09-19T01:25:42;16.90;99.90
11083;DHT22;5595;50.186;8.468;2023-09-19T01:28:26;16.90;99.90
11083;DHT22;5595;50.186;8.468;2023-09-19T01:30:58;16.90;99.90
11083;DHT22;5595;50.186;8.468;2023-09-19T01:33:25;16.90;99.90
11083;DHT22;5595;50.186;8.468;2023-09-19T01:35:52;16.90;99.90
11083;DHT22;5595;50.186;8.468;2023-09-19T01:38:23;16.90;99.90
11083;DHT22;5595;50.186;8.468;2023-09-19T01:40:56;16.90;99.90
11083;DHT22;5595;50.186;8.468;2023-09-19T01:43:29;16.90;99.90
11083;DHT22;5595;50.186;8.468;2023-09-19T01:46:05;16.90;99.90
11083;DHT22;5595;50.186;8.468;2023-09-19T01:48:40;16.80;99.90
11083;DHT22;5595;50.186;8.468;2023-09-19T01:51:14;16.80;99.90
11083;DHT22;5595;50.186;8.468;2023-09-19T01:53:51;16.80;99.90
11083;DHT22;5595;50.186;8.468;2023-09-19T01:56:25;16.80;99.90
11083;DHT22;5595;50.186;8.468;2023-09-19T01:58:57;16.80;99.90
11083;DHT22;5595;50.186;8.468;2023-09-19T02:01:29;16.80;99.90
11083;DHT22;5595;50.186;8.468;2023-09-19T02:03:56;16.80;99.90
11083;DHT22;5595;50.186;8.468;2023-09-19T02:06:23;16.80;99.90
11083;DHT22;5595;50.186;8.468;2023-09-19T02:08:53;16.80;99.90
11083;DHT22;5595;50.186;8.468;2023-09-19T02:11:21;16.80;99.90
11083;DHT22;5595;50.186;8.468;2023-09-19T02:13:47;16.80;99.90
11083;DHT22;5595;50.186;8.468;2023-09-19T02:16:18;16.80;99.90
11083;DHT22;5595;50.186;8.468;2023-09-19T02:18:49;16.80;99.90
11083;DHT22;5595;50.186;8.468;2023-09-19T02:21:16;16.80;99.90
11083;DHT22;5595;50.186;8.468;2023-09-19T02:23:44;16.70;99.90
11083;DHT22;5595;50.186;8.468;2023-09-19T02:26:12;16.70;99.90
11083;DHT22;5595;50.186;8.468;2023-09-19T02:28:39;16.60;99.90
11083;DHT22;5595;50.186;8.468;2023-09-19T02:31:06;16.50;99.90
11083;DHT22;5595;50.186;8.468;2023-09-19T02:33:33;16.30;99.90
11083;DHT22;5595;50.186;8.468;2023-09-19T02:36:02;16.20;99.90
11083;DHT22;5595;50.186;8.468;2023-09-19T02:38:31;16.20;99.90
11083;DHT22;5595;50.186;8.468;2023-09-19T02:40:57;16.10;99.90
11083;DHT22;5595;50.186;8.468;2023-09-19T02:43:24;16.00;99.90
11083;DHT22;5595;50.186;8.468;2023-09-19T02:45:52;15.90;99.90
11083;DHT22;5595;50.186;8.468;2023-09-19T02:48:20;15.80;99.90
11083;DHT22;5595;50.186;8.468;2023-09-19T02:50:49;15.80;99.90
11083;DHT22;5595;50.186;8.468;2023-09-19T02:53:18;15.80;99.90
11083;DHT22;5595;50.186;8.468;2023-09-19T02:55:46;15.70;99.90
11083;DHT22;5595;50.186;8.468;2023-09-19T02:58:13;15.60;99.90
11083;DHT22;5595;50.186;8.468;2023-09-19T03:00:41;15.60;99.90
11083;DHT22;5595;50.186;8.468;2023-09-19T03:03:08;15.50;99.90
11083;DHT22;5595;50.186;8.468;2023-09-19T03:05:35;15.40;99.90
11083;DHT22;5595;50.186;8.468;2023-09-19T03:08:04;15.40;99.90
11083;DHT22;5595;50.186;8.468;2023-09-19T03:10:33;15.30;99.90
11083;DHT22;5595;50.186;8.468;2023-09-19T03:13:03;15.30;99.90
11083;DHT22;5595;50.186;8.468;2023-09-19T03:15:30;15.30;99.90
11083;DHT22;5595;50.186;8.468;2023-09-19T03:17:56;15.20;99.90
11083;DHT22;5595;50.186;8.468;2023-09-19T03:20:25;15.10;99.90
11083;DHT22;5595;50.186;8.468;2023-09-19T03:22:53;15.10;99.90
11083;DHT22;5595;50.186;8.468;2023-09-19T03:25:19;15.10;99.90
11083;DHT22;5595;50.186;8.468;2023-09-19T03:27:50;15.10;99.90
11083;DHT22;5595;50.186;8.468;2023-09-19T03:30:17;15.00;99.90
11083;DHT22;5595;50.186;8.468;2023-09-19T03:32:44;15.00;99.90
11083;DHT22;5595;50.186;8.468;2023-09-19T03:35:12;14.90;99.90
11083;DHT22;5595;50.186;8.468;2023-09-19T03:37:40;14.90;99.90
11083;DHT22;5595;50.186;8.468;2023-09-19T03:40:07;14.90;99.90
11083;DHT22;5595;50.186;8.468;2023-09-19T03:42:38;14.90;99.90
11083;DHT22;5595;50.186;8.468;2023-09-19T03:45:07;14.80;99.90
11083;DHT22;5595;50.186;8.468;2023-09-19T03:47:36;14.80;99.90
11083;DHT22;5595;50.186;8.468;2023-09-19T03:50:05;14.80;99.90
11083;DHT22;5595;50.186;8.468;2023-09-19T03:52:34;14.80;99.90
11083;DHT22;5595;50.186;8.468;2023-09-19T03:55:01;14.80;99.90
11083;DHT22;5595;50.186;8.468;2023-09-19T03:57:30;14.80;99.90
11083;DHT22;5595;50.186;8.468;2023-09-19T03:59:56;14.90;99.90
11083;DHT22;5595;50.186;8.468;2023-09-19T04:02:25;15.00;99.90
11083;DHT22;5595;50.186;8.468;2023-09-19T04:04:52;15.10;99.90
11083;DHT22;5595;50.186;8.468;2023-09-19T04:07:19;15.10;99.90
11083;DHT22;5595;50.186;8.468;2023-09-19T04:09:47;15.10;99.90
11083;DHT22;5595;50.186;8.468;2023-09-19T04:12:14;15.10;99.90
11083;DHT22;5595;50.186;8.468;2023-09-19T04:14:42;15.00;99.90
11083;DHT22;5595;50.186;8.468;2023-09-19T04:17:09;15.00;99.90
11083;DHT22;5595;50.186;8.468;2023-09-19T04:19:37;15.00;99.90
11083;DHT22;5595;50.186;8.468;2023-09-19T04:22:04;14.90;99.90
11083;DHT22;5595;50.186;8.468;2023-09-19T04:24:31;15.00;99.90
11083;DHT22;5595;50.186;8.468;2023-09-19T04:26:59;14.90;99.90
11083;DHT22;5595;50.186;8.468;2023-09-19T04:29:26;14.90;99.90
11083;DHT22;5595;50.186;8.468;2023-09-19T04:31:55;15.00;99.90
11083;DHT22;5595;50.186;8.468;2023-09-19T04:34:23;14.90;99.90
11083;DHT22;5595;50.186;8.468;2023-09-19T04:36:51;15.00;99.90
11083;DHT22;5595;50.186;8.468;2023-09-19T04:39:19;14.90;99.90
11083;DHT22;5595;50.186;8.468;2023-09-19T04:41:46;14.90;99.90
11083;DHT22;5595;50.186;8.468;2023-09-19T04:44:13;14.90;99.90
11083;DHT22;5595;50.186;8.468;2023-09-19T04:46:40;14.80;99.90
11083;DHT22;5595;50.186;8.468;2023-09-19T04:49:07;14.90;99.90
11083;DHT22;5595;50.186;8.468;2023-09-19T04:51:34;14.90;99.90
11083;DHT22;5595;50.186;8.468;2023-09-19T04:54:03;14.90;99.90
11083;DHT22;5595;50.186;8.468;2023-09-19T04:56:32;14.90;99.90
11083;DHT22;5595;50.186;8.468;2023-09-19T04:58:59;15.00;99.90
11083;DHT22;5595;50.186;8.468;2023-09-19T05:01:26;14.90;99.90
11083;DHT22;5595;50.186;8.468;2023-09-19T05:03:53;14.90;99.90
11083;DHT22;5595;50.186;8.468;2023-09-19T05:06:20;14.90;99.90
11083;DHT22;5595;50.186;8.468;2023-09-19T05:08:47;14.90;99.90
11083;DHT22;5595;50.186;8.468;2023-09-19T05:11:18;14.80;99.90
11083;DHT22;5595;50.186;8.468;2023-09-19T05:13:44;14.80;99.90
11083;DHT22;5595;50.186;8.468;2023-09-19T05:16:11;14.80;99.90
11083;DHT22;5595;50.186;8.468;2023-09-19T05:18:38;14.80;99.90
11083;DHT22;5595;50.186;8.468;2023-09-19T05:21:05;14.80;99.90
11083;DHT22;5595;50.186;8.468;2023-09-19T05:23:33;14.80;99.90
11083;DHT22;5595;50.186;8.468;2023-09-19T05:26:00;14.80;99.90
11083;DHT22;5595;50.186;8.468;2023-09-19T05:28:30;14.80;99.90
11083;DHT22;5595;50.186;8.468;2023-09-19T05:31:00;14.90;99.90
11083;DHT22;5595;50.186;8.468;2023-09-19T05:33:28;14.90;99.90
11083;DHT22;5595;50.186;8.468;2023-09-19T05:35:57;14.90;99.90
11083;DHT22;5595;50.186;8.468;2023-09-19T05:38:24;14.90;99.90
11083;DHT22;5595;50.186;8.468;2023-09-19T05:40:52;15.00;99.90
11083;DHT22;5595;50.186;8.468;2023-09-19T05:43:19;14.90;99.90
11083;DHT22;5595;50.186;8.468;2023-09-19T05:45:47;14.90;99.90
11083;DHT22;5595;50.186;8.468;2023-09-19T05:48:17;14.90;99.90
11083;DHT22;5595;50.186;8.468;2023-09-19T05:50:46;14.90;99.90
11083;DHT22;5595;50.186;8.468;2023-09-19T05:53:14;15.00;99.90
11083;DHT22;5595;50.186;8.468;2023-09-19T05:55:41;15.10;99.90
11083;DHT22;5595;50.186;8.468;2023-09-19T05:58:08;15.10;99.90
11083;DHT22;5595;50.186;8.468;2023-09-19T06:00:35;15.20;99.90
11083;DHT22;5595;50.186;8.468;2023-09-19T06:03:04;15.20;99.90
11083;DHT22;5595;50.186;8.468;2023-09-19T06:05:31;15.20;99.90
11083;DHT22;5595;50.186;8.468;2023-09-19T06:07:57;15.30;99.90
11083;DHT22;5595;50.186;8.468;2023-09-19T06:10:26;15.20;99.90
11083;DHT22;5595;50.186;8.468;2023-09-19T06:12:53;15.20;99.90
11083;DHT22;5595;50.186;8.468;2023-09-19T06:15:20;15.20;99.90
11083;DHT22;5595;50.186;8.468;2023-09-19T06:17:49;15.20;99.90
11083;DHT22;5595;50.186;8.468;2023-09-19T06:20:17;15.20;99.90
11083;DHT22;5595;50.186;8.468;2023-09-19T06:22:45;15.20;99.90
11083;DHT22;5595;50.186;8.468;2023-09-19T06:25:13;15.30;99.90
11083;DHT22;5595;50.186;8.468;2023-09-19T06:27:44;15.40;99.90
11083;DHT22;5595;50.186;8.468;2023-09-19T06:30:12;15.40;99.90
11083;DHT22;5595;50.186;8.468;2023-09-19T06:32:39;15.40;99.90
11083;DHT22;5595;50.186;8.468;2023-09-19T06:35:09;15.50;99.90
11083;DHT22;5595;50.186;8.468;2023-09-19T06:37:38;15.60;99.90
11083;DHT22;5595;50.186;8.468;2023-09-19T06:40:07;15.70;99.90
11083;DHT22;5595;50.186;8.468;2023-09-19T06:42:39;15.70;99.90
11083;DHT22;5595;50.186;8.468;2023-09-19T06:45:07;15.80;99.90
11083;DHT22;5595;50.186;8.468;2023-09-19T06:47:36;15.80;99.90
11083;DHT22;5595;50.186;8.468;2023-09-19T06:50:04;15.80;99.90
11083;DHT22;5595;50.186;8.468;2023-09-19T06:52:31;15.80;99.90
11083;DHT22;5595;50.186;8.468;2023-09-19T06:55:00;15.90;99.90
11083;DHT22;5595;50.186;8.468;2023-09-19T06:57:28;15.90;99.90
11083;DHT22;5595;50.186;8.468;2023-09-19T06:59:56;16.00;99.90
11083;DHT22;5595;50.186;8.468;2023-09-19T07:02:22;16.10;99.90
11083;DHT22;5595;50.186;8.468;2023-09-19T07:04:49;16.20;99.90
11083;DHT22;5595;50.186;8.468;2023-09-19T07:07:16;16.20;99.90
11083;DHT22;5595;50.186;8.468;2023-09-19T07:09:43;16.30;99.90
11083;DHT22;5595;50.186;8.468;2023-09-19T07:12:11;16.30;99.90
11083;DHT22;5595;50.186;8.468;2023-09-19T07:14:38;16.30;99.90
11083;DHT22;5595;50.186;8.468;2023-09-19T07:17:05;16.30;99.90
11083;DHT22;5595;50.186;8.468;2023-09-19T07:19:32;16.30;99.90
11083;DHT22;5595;50.186;8.468;2023-09-19T07:21:59;16.40;99.90
11083;DHT22;5595;50.186;8.468;2023-09-19T07:24:28;16.50;99.90
11083;DHT22;5595;50.186;8.468;2023-09-19T07:26:58;16.60;99.90
11083;DHT22;5595;50.186;8.468;2023-09-19T07:29:26;16.70;99.90
11083;DHT22;5595;50.186;8.468;2023-09-19T07:31:53;16.80;99.90
11083;DHT22;5595;50.186;8.468;2023-09-19T07:34:19;16.90;99.90
11083;DHT22;5595;50.186;8.468;2023-09-19T07:36:48;16.90;99.90
11083;DHT22;5595;50.186;8.468;2023-09-19T07:39:15;16.90;99.90
11083;DHT22;5595;50.186;8.468;2023-09-19T07:41:41;17.00;99.90
11083;DHT22;5595;50.186;8.468;2023-09-19T07:44:08;17.00;99.90
11083;DHT22;5595;50.186;8.468;2023-09-19T07:46:37;17.00;99.90
11083;DHT22;5595;50.186;8.468;2023-09-19T07:49:04;17.00;99.90
11083;DHT22;5595;50.186;8.468;2023-09-19T07:51:30;17.00;99.90
11083;DHT22;5595;50.186;8.468;2023-09-19T07:53:58;16.90;99.90
11083;DHT22;5595;50.186;8.468;2023-09-19T07:56:25;16.90;99.90
11083;DHT22;5595;50.186;8.468;2023-09-19T07:58:53;17.00;99.90
11083;DHT22;5595;50.186;8.468;2023-09-19T08:01:20;17.00;99.90
11083;DHT22;5595;50.186;8.468;2023-09-19T08:03:50;17.10;99.90
11083;DHT22;5595;50.186;8.468;2023-09-19T08:06:17;17.20;99.90
11083;DHT22;5595;50.186;8.468;2023-09-19T08:08:44;17.20;99.90
11083;DHT22;5595;50.186;8.468;2023-09-19T08:11:11;17.30;99.90
11083;DHT22;5595;50.186;8.468;2023-09-19T08:13:38;17.30;99.90
11083;DHT22;5595;50.186;8.468;2023-09-19T08:16:08;17.50;99.90
11083;DHT22;5595;50.186;8.468;2023-09-19T08:18:35;17.40;99.90
11083;DHT22;5595;50.186;8.468;2023-09-19T08:21:04;17.40;99.90
11083;DHT22;5595;50.186;8.468;2023-09-19T08:23:33;17.40;99.90
11083;DHT22;5595;50.186;8.468;2023-09-19T08:26:00;17.40;99.90
11083;DHT22;5595;50.186;8.468;2023-09-19T08:28:32;17.40;99.90
11083;DHT22;5595;50.186;8.468;2023-09-19T08:31:02;17.50;99.90
11083;DHT22;5595;50.186;8.468;2023-09-19T08:33:31;17.60;99.90
11083;DHT22;5595;50.186;8.468;2023-09-19T08:35:57;17.70;99.90
11083;DHT22;5595;50.186;8.468;2023-09-19T08:38:26;17.80;99.90
11083;DHT22;5595;50.186;8.468;2023-09-19T08:40:57;17.70;99.90
11083;DHT22;5595;50.186;8.468;2023-09-19T08:43:24;17.80;99.90
11083;DHT22;5595;50.186;8.468;2023-09-19T08:45:58;18.00;99.90
11083;DHT22;5595;50.186;8.468;2023-09-19T08:48:29;18.00;99.90
11083;DHT22;5595;50.186;8.468;2023-09-19T08:51:02;18.00;99.90
11083;DHT22;5595;50.186;8.468;2023-09-19T08:53:36;18.20;99.90
11083;DHT22;5595;50.186;8.468;2023-09-19T08:56:08;18.20;99.90
11083;DHT22;5595;50.186;8.468;2023-09-19T08:58:43;18.30;99.90
11083;DHT22;5595;50.186;8.468;2023-09-19T09:01:13;18.40;99.90
11083;DHT22;5595;50.186;8.468;2023-09-19T09:03:42;18.50;99.90
11083;DHT22;5595;50.186;8.468;2023-09-19T09:06:13;18.70;99.90
11083;DHT22;5595;50.186;8.468;2023-09-19T09:08:43;18.80;99.90
11083;DHT22;5595;50.186;8.468;2023-09-19T09:11:11;18.80;99.90
11083;DHT22;5595;50.186;8.468;2023-09-19T09:13:38;18.60;99.90
11083;DHT22;5595;50.186;8.468;2023-09-19T09:16:07;18.50;99.90
11083;DHT22;5595;50.186;8.468;2023-09-19T09:18:33;18.60;99.90
11083;DHT22;5595;50.186;8.468;2023-09-19T09:21:00;18.60;99.90
11083;DHT22;5595;50.186;8.468;2023-09-19T09:23:27;18.80;99.90
11083;DHT22;5595;50.186;8.468;2023-09-19T09:25:57;18.80;99.90
11083;DHT22;5595;50.186;8.468;2023-09-19T09:28:28;18.80;99.90
11083;DHT22;5595;50.186;8.468;2023-09-19T09:30:56;18.90;99.90
11083;DHT22;5595;50.186;8.468;2023-09-19T09:33:24;18.80;99.90
11083;DHT22;5595;50.186;8.468;2023-09-19T09:35:52;18.80;99.90
11083;DHT22;5595;50.186;8.468;2023-09-19T09:38:22;18.80;99.90
11083;DHT22;5595;50.186;8.468;2023-09-19T09:40:53;19.00;99.90
11083;DHT22;5595;50.186;8.468;2023-09-19T09:43:28;19.10;99.90
11083;DHT22;5595;50.186;8.468;2023-09-19T09:46:09;19.00;99.90
11083;DHT22;5595;50.186;8.468;2023-09-19T09:48:59;19.10;99.90
11083;DHT22;5595;50.186;8.468;2023-09-19T09:51:42;19.10;99.90
11083;DHT22;5595;50.186;8.468;2023-09-19T09:54:13;19.10;99.90
11083;DHT22;5595;50.186;8.468;2023-09-19T09:56:55;19.10;99.90
11083;DHT22;5595;50.186;8.468;2023-09-19T09:59:45;19.20;99.90
11083;DHT22;5595;50.186;8.468;2023-09-19T10:02:13;19.30;99.90
11083;DHT22;5595;50.186;8.468;2023-09-19T10:04:49;19.40;99.90
11083;DHT22;5595;50.186;8.468;2023-09-19T10:07:29;19.60;99.90
11083;DHT22;5595;50.186;8.468;2023-09-19T10:10:04;19.60;99.90
11083;DHT22;5595;50.186;8.468;2023-09-19T10:12:43;19.60;99.90
11083;DHT22;5595;50.186;8.468;2023-09-19T10:15:15;19.50;99.90
11083;DHT22;5595;50.186;8.468;2023-09-19T10:17:44;19.50;99.90
11083;DHT22;5595;50.186;8.468;2023-09-19T10:20:13;19.50;99.90
11083;DHT22;5595;50.186;8.468;2023-09-19T10:23:03;19.50;99.90
11083;DHT22;5595;50.186;8.468;2023-09-19T10:25:37;19.60;99.90
11083;DHT22;5595;50.186;8.468;2023-09-19T10:28:06;19.70;99.90
11083;DHT22;5595;50.186;8.468;2023-09-19T10:30:40;19.90;99.90
11083;DHT22;5595;50.186;8.468;2023-09-19T10:33:10;20.00;99.90
11083;DHT22;5595;50.186;8.468;2023-09-19T10:35:39;20.00;99.90
11083;DHT22;5595;50.186;8.468;2023-09-19T10:38:10;20.10;99.90
11083;DHT22;5595;50.186;8.468;2023-09-19T10:40:38;20.10;99.90
11083;DHT22;5595;50.186;8.468;2023-09-19T10:43:12;19.90;99.90
11083;DHT22;5595;50.186;8.468;2023-09-19T10:45:41;19.80;99.90
11083;DHT22;5595;50.186;8.468;2023-09-19T10:48:10;19.70;99.90
11083;DHT22;5595;50.186;8.468;2023-09-19T10:50:44;19.70;99.90
11083;DHT22;5595;50.186;8.468;2023-09-19T10:53:13;19.90;99.90
11083;DHT22;5595;50.186;8.468;2023-09-19T10:55:47;20.20;99.90
11083;DHT22;5595;50.186;8.468;2023-09-19T10:58:25;20.50;99.90
11083;DHT22;5595;50.186;8.468;2023-09-19T11:00:56;20.60;99.90
11083;DHT22;5595;50.186;8.468;2023-09-19T11:03:27;20.60;99.90
11083;DHT22;5595;50.186;8.468;2023-09-19T11:06:04;20.50;99.90
11083;DHT22;5595;50.186;8.468;2023-09-19T11:08:30;20.40;99.90
11083;DHT22;5595;50.186;8.468;2023-09-19T11:10:58;20.30;99.90
11083;DHT22;5595;50.186;8.468;2023-09-19T11:13:25;20.30;99.90
11083;DHT22;5595;50.186;8.468;2023-09-19T11:16:19;20.40;99.90
11083;DHT22;5595;50.186;8.468;2023-09-19T11:18:56;20.50;99.90
11083;DHT22;5595;50.186;8.468;2023-09-19T11:21:40;20.60;99.90
11083;DHT22;5595;50.186;8.468;2023-09-19T11:24:30;20.60;99.90
11083;DHT22;5595;50.186;8.468;2023-09-19T11:27:15;20.50;99.90
11083;DHT22;5595;50.186;8.468;2023-09-19T11:29:43;20.40;99.90
11083;DHT22;5595;50.186;8.468;2023-09-19T11:32:12;20.30;99.90
11083;DHT22;5595;50.186;8.468;2023-09-19T11:34:46;20.20;99.90
11083;DHT22;5595;50.186;8.468;2023-09-19T11:40:45;20.10;99.90
11083;DHT22;5595;50.186;8.468;2023-09-19T11:43:32;20.10;99.90
11083;DHT22;5595;50.186;8.468;2023-09-19T11:46:08;20.00;99.90
11083;DHT22;5595;50.186;8.468;2023-09-19T11:48:38;20.00;99.90
11083;DHT22;5595;50.186;8.468;2023-09-19T11:51:12;20.20;99.90
11083;DHT22;5595;50.186;8.468;2023-09-19T11:53:46;20.20;99.90
11083;DHT22;5595;50.186;8.468;2023-09-19T11:56:16;20.30;99.90
11083;DHT22;5595;50.186;8.468;2023-09-19T11:58:44;20.20;99.90
11083;DHT22;5595;50.186;8.468;2023-09-19T12:01:14;20.40;99.90
11083;DHT22;5595;50.186;8.468;2023-09-19T12:03:48;20.50;99.90
11083;DHT22;5595;50.186;8.468;2023-09-19T12:06:20;20.50;99.90
11083;DHT22;5595;50.186;8.468;2023-09-19T12:08:47;20.40;99.90
11083;DHT22;5595;50.186;8.468;2023-09-19T12:11:16;20.40;99.90
11083;DHT22;5595;50.186;8.468;2023-09-19T12:13:43;20.50;99.90
11083;DHT22;5595;50.186;8.468;2023-09-19T12:16:13;20.40;99.90
11083;DHT22;5595;50.186;8.468;2023-09-19T12:18:41;20.30;99.90
11083;DHT22;5595;50.186;8.468;2023-09-19T12:21:23;20.20;99.90
11083;DHT22;5595;50.186;8.468;2023-09-19T12:23:58;20.20;99.90
11083;DHT22;5595;50.186;8.468;2023-09-19T12:26:26;20.30;99.90
11083;DHT22;5595;50.186;8.468;2023-09-19T12:28:54;20.30;99.90
11083;DHT22;5595;50.186;8.468;2023-09-19T12:31:21;20.30;99.90
11083;DHT22;5595;50.186;8.468;2023-09-19T12:33:53;20.30;99.90
11083;DHT22;5595;50.186;8.468;2023-09-19T12:36:22;20.30;99.90
11083;DHT22;5595;50.186;8.468;2023-09-19T12:38:56;20.30;99.90
11083;DHT22;5595;50.186;8.468;2023-09-19T12:41:24;20.50;99.90
11083;DHT22;5595;50.186;8.468;2023-09-19T12:43:51;20.50;99.90
11083;DHT22;5595;50.186;8.468;2023-09-19T12:46:20;20.60;99.90
11083;DHT22;5595;50.186;8.468;2023-09-19T12:49:16;20.80;99.90
11083;DHT22;5595;50.186;8.468;2023-09-19T12:51:46;21.00;99.90
11083;DHT22;5595;50.186;8.468;2023-09-19T12:54:13;21.20;99.90
11083;DHT22;5595;50.186;8.468;2023-09-19T12:56:42;21.20;99.90
11083;DHT22;5595;50.186;8.468;2023-09-19T12:59:12;21.30;99.90
11083;DHT22;5595;50.186;8.468;2023-09-19T13:01:40;21.40;99.90
11083;DHT22;5595;50.186;8.468;2023-09-19T13:04:16;21.40;99.90
11083;DHT22;5595;50.186;8.468;2023-09-19T13:06:48;21.40;99.90
11083;DHT22;5595;50.186;8.468;2023-09-19T13:09:15;21.50;99.90
11083;DHT22;5595;50.186;8.468;2023-09-19T13:11:43;21.60;99.90
11083;DHT22;5595;50.186;8.468;2023-09-19T13:14:16;21.60;99.90
11083;DHT22;5595;50.186;8.468;2023-09-19T13:16:57;21.70;99.90
11083;DHT22;5595;50.186;8.468;2023-09-19T13:19:38;21.70;99.90
11083;DHT22;5595;50.186;8.468;2023-09-19T13:22:36;21.60;99.80
11083;DHT22;5595;50.186;8.468;2023-09-19T13:25:05;21.50;99.70
11083;DHT22;5595;50.186;8.468;2023-09-19T13:27:33;21.40;99.30
11083;DHT22;5595;50.186;8.468;2023-09-19T13:30:00;21.30;99.50
11083;DHT22;5595;50.186;8.468;2023-09-19T13:32:27;21.20;99.70
11083;DHT22;5595;50.186;8.468;2023-09-19T13:34:54;21.10;99.70
11083;DHT22;5595;50.186;8.468;2023-09-19T13:37:22;20.90;99.90
11083;DHT22;5595;50.186;8.468;2023-09-19T13:39:49;20.80;99.90
11083;DHT22;5595;50.186;8.468;2023-09-19T13:42:15;20.60;99.80
11083;DHT22;5595;50.186;8.468;2023-09-19T13:44:47;20.50;99.80
11083;DHT22;5595;50.186;8.468;2023-09-19T13:47:14;20.30;99.40
11083;DHT22;5595;50.186;8.468;2023-09-19T13:49:41;20.30;99.40
11083;DHT22;5595;50.186;8.468;2023-09-19T13:52:16;20.20;99.10
11083;DHT22;5595;50.186;8.468;2023-09-19T13:54:49;20.20;99.20
11083;DHT22;5595;50.186;8.468;2023-09-19T13:57:16;20.20;99.50
11083;DHT22;5595;50.186;8.468;2023-09-19T13:59:43;20.30;99.60
11083;DHT22;5595;50.186;8.468;2023-09-19T14:02:13;20.30;99.90
11083;DHT22;5595;50.186;8.468;2023-09-19T14:04:40;20.30;99.80
11083;DHT22;5595;50.186;8.468;2023-09-19T14:07:07;20.30;99.90
11083;DHT22;5595;50.186;8.468;2023-09-19T14:09:34;20.30;99.90
11083;DHT22;5595;50.186;8.468;2023-09-19T14:12:02;20.30;99.60
11083;DHT22;5595;50.186;8.468;2023-09-19T14:14:29;20.30;99.60
11083;DHT22;5595;50.186;8.468;2023-09-19T14:16:56;20.20;99.60
11083;DHT22;5595;50.186;8.468;2023-09-19T14:19:26;20.20;99.80
11083;DHT22;5595;50.186;8.468;2023-09-19T14:21:53;20.10;99.90
11083;DHT22;5595;50.186;8.468;2023-09-19T14:24:21;20.20;99.70
11083;DHT22;5595;50.186;8.468;2023-09-19T14:26:48;20.10;99.60
11083;DHT22;5595;50.186;8.468;2023-09-19T14:29:17;20.10;99.90
11083;DHT22;5595;50.186;8.468;2023-09-19T14:31:45;20.10;99.70
11083;DHT22;5595;50.186;8.468;2023-09-19T14:34:12;20.00;99.80
11083;DHT22;5595;50.186;8.468;2023-09-19T14:36:39;20.00;99.50
11083;DHT22;5595;50.186;8.468;2023-09-19T14:39:06;20.00;99.80
11083;DHT22;5595;50.186;8.468;2023-09-19T14:41:33;20.00;99.70
11083;DHT22;5595;50.186;8.468;2023-09-19T14:44:02;20.00;99.60
11083;DHT22;5595;50.186;8.468;2023-09-19T14:46:35;20.00;99.80
11083;DHT22;5595;50.186;8.468;2023-09-19T14:49:02;20.00;99.90
11083;DHT22;5595;50.186;8.468;2023-09-19T14:51:30;20.10;99.90
11083;DHT22;5595;50.186;8.468;2023-09-19T14:53:57;20.10;99.90
11083;DHT22;5595;50.186;8.468;2023-09-19T14:56:24;20.10;99.90
11083;DHT22;5595;50.186;8.468;2023-09-19T14:58:51;20.10;99.90
11083;DHT22;5595;50.186;8.468;2023-09-19T15:01:18;20.00;99.90
11083;DHT22;5595;50.186;8.468;2023-09-19T15:03:46;19.90;99.60
11083;DHT22;5595;50.186;8.468;2023-09-19T15:06:15;19.80;99.80
11083;DHT22;5595;50.186;8.468;2023-09-19T15:08:43;19.70;99.20
11083;DHT22;5595;50.186;8.468;2023-09-19T15:11:12;19.60;99.40
11083;DHT22;5595;50.186;8.468;2023-09-19T15:13:41;19.60;99.80
11083;DHT22;5595;50.186;8.468;2023-09-19T15:16:09;19.60;99.90
11083;DHT22;5595;50.186;8.468;2023-09-19T15:18:37;19.60;99.90
11083;DHT22;5595;50.186;8.468;2023-09-19T15:21:06;19.70;99.90
11083;DHT22;5595;50.186;8.468;2023-09-19T15:23:34;19.70;99.90
11083;DHT22;5595;50.186;8.468;2023-09-19T15:26:02;19.70;99.90
11083;DHT22;5595;50.186;8.468;2023-09-19T15:28:29;19.70;99.90
11083;DHT22;5595;50.186;8.468;2023-09-19T15:30:58;19.60;99.90
11083;DHT22;5595;50.186;8.468;2023-09-19T15:33:25;19.60;99.90
11083;DHT22;5595;50.186;8.468;2023-09-19T15:36:00;19.50;99.90
11083;DHT22;5595;50.186;8.468;2023-09-19T15:38:30;19.40;99.90
11083;DHT22;5595;50.186;8.468;2023-09-19T15:40:58;19.40;99.90
11083;DHT22;5595;50.186;8.468;2023-09-19T15:43:25;19.30;99.90
11083;DHT22;5595;50.186;8.468;2023-09-19T15:45:53;19.30;99.90
11083;DHT22;5595;50.186;8.468;2023-09-19T15:48:19;19.20;99.90
11083;DHT22;5595;50.186;8.468;2023-09-19T15:50:47;19.30;99.90
11083;DHT22;5595;50.186;8.468;2023-09-19T15:53:14;19.30;99.90
11083;DHT22;5595;50.186;8.468;2023-09-19T15:55:43;19.30;99.90
11083;DHT22;5595;50.186;8.468;2023-09-19T15:58:10;19.30;99.90
11083;DHT22;5595;50.186;8.468;2023-09-19T16:00:40;19.30;99.90
11083;DHT22;5595;50.186;8.468;2023-09-19T16:03:06;19.30;99.90